Time;durP1;ratioP1;P1;durP2;ratioP2;P2;SDS_P1;SDS_P2;PMS_P1;PMS_P2;Temp;Humidity;BMP_temperature;BMP_pressure;BME280_temperature;BME280_humidity;BME280_pressure;Samples;Min_cycle;Max_cycle;Signal;HPM_P1;HPM_P2
2022/01/19 00:01:26;;;;;;;19.23;9.52;;;2.70;99.90;;;;;;4934130;28;20027;-87
2022/01/19 00:03:52;;;;;;;23.35;9.80;;;2.50;99.90;;;;;;4949229;28;20058;-86
2022/01/19 00:06:17;;;;;;;19.80;9.30;;;2.40;99.90;;;;;;4942473;28;20031;-87
2022/01/19 00:08:43;;;;;;;21.70;9.27;;;2.40;99.90;;;;;;4935787;28;20050;-87
2022/01/19 00:11:09;;;;;;;25.52;10.05;;;2.30;99.90;;;;;;4932775;28;20091;-87
2022/01/19 00:13:35;;;;;;;25.88;10.68;;;2.30;99.90;;;;;;4953591;28;20035;-87
2022/01/19 00:16:00;;;;;;;21.10;10.23;;;2.30;99.90;;;;;;4920200;28;20035;-86
2022/01/19 00:18:26;;;;;;;19.98;10.02;;;2.20;99.90;;;;;;4935515;28;20130;-86
2022/01/19 00:20:53;;;;;;;21.35;9.77;;;2.30;99.90;;;;;;4947417;28;20045;-85
2022/01/19 00:23:19;;;;;;;27.52;10.60;;;2.30;99.90;;;;;;4945671;28;20036;-86
2022/01/19 00:25:44;;;;;;;17.90;9.35;;;2.30;99.90;;;;;;4943037;28;20109;-86
2022/01/19 00:28:10;;;;;;;21.13;9.75;;;2.10;99.90;;;;;;4934118;28;20059;-86
2022/01/19 00:30:36;;;;;;;17.23;9.52;;;2.10;99.90;;;;;;4915399;28;20033;-86
2022/01/19 00:33:01;;;;;;;20.85;10.27;;;1.90;99.90;;;;;;4932364;28;20125;-86
2022/01/19 00:35:27;;;;;;;26.10;10.60;;;1.80;99.90;;;;;;4944474;28;20466;-85
2022/01/19 00:37:52;;;;;;;24.83;10.85;;;1.80;99.90;;;;;;4933612;28;20038;-85
2022/01/19 00:40:18;;;;;;;25.27;10.80;;;1.80;99.90;;;;;;4948295;28;20043;-86
2022/01/19 00:42:44;;;;;;;20.15;10.23;;;1.80;99.90;;;;;;4947890;28;20050;-86
2022/01/19 00:45:10;;;;;;;25.27;10.18;;;1.80;99.90;;;;;;4935479;28;20042;-86
2022/01/19 00:47:37;;;;;;;23.40;11.95;;;1.80;99.90;;;;;;4936741;28;20099;-88
2022/01/19 00:50:04;;;;;;;24.75;10.88;;;1.70;99.90;;;;;;4953599;28;20058;-86
2022/01/19 00:52:30;;;;;;;17.63;9.23;;;1.70;99.90;;;;;;4962897;28;20131;-85
2022/01/19 00:54:55;;;;;;;20.90;9.75;;;1.80;99.90;;;;;;4935726;28;20122;-85
2022/01/19 00:57:21;;;;;;;19.27;10.02;;;1.90;99.90;;;;;;4932900;28;20071;-85
2022/01/19 00:59:47;;;;;;;18.13;8.82;;;1.80;99.90;;;;;;4946232;28;20034;-85
2022/01/19 01:02:12;;;;;;;24.67;9.82;;;1.80;99.90;;;;;;4931208;28;20043;-85
2022/01/19 01:04:38;;;;;;;21.77;9.45;;;1.70;99.90;;;;;;4945369;28;20030;-86
2022/01/19 01:07:03;;;;;;;22.02;9.50;;;1.60;99.90;;;;;;4936561;28;20412;-85
2022/01/19 01:09:29;;;;;;;18.20;9.57;;;1.60;99.90;;;;;;4929281;28;20035;-85
2022/01/19 01:12:09;;;;;;;16.00;8.02;;;1.50;99.90;;;;;;4932835;28;20041;-85
2022/01/19 01:20:05;;;;;;;20.48;9.48;;;1.30;99.90;;;;;;4946355;28;20089;-85
2022/01/19 01:22:31;;;;;;;17.30;8.25;;;1.40;99.90;;;;;;4930587;28;20047;-85
2022/01/19 01:24:56;;;;;;;22.10;10.30;;;1.50;99.90;;;;;;4932873;28;20118;-85
2022/01/19 01:27:22;;;;;;;19.23;8.70;;;1.30;99.90;;;;;;4932222;28;20472;-85
2022/01/19 01:29:48;;;;;;;19.75;9.30;;;1.00;99.90;;;;;;4917528;28;20041;-85
2022/01/19 01:32:13;;;;;;;17.23;9.38;;;0.90;99.90;;;;;;4944468;28;20122;-85
2022/01/19 01:34:39;;;;;;;22.38;9.43;;;0.90;99.90;;;;;;4932937;28;20035;-85
2022/01/19 01:37:04;;;;;;;16.58;9.35;;;0.80;99.90;;;;;;4941918;28;20058;-85
2022/01/19 01:39:30;;;;;;;17.20;8.88;;;0.80;99.90;;;;;;4960641;28;20043;-85
2022/01/19 01:41:55;;;;;;;20.17;9.98;;;0.70;99.90;;;;;;4931600;28;20093;-84
2022/01/19 01:44:21;;;;;;;18.65;9.40;;;0.80;99.90;;;;;;4940813;28;20027;-85
2022/01/19 01:46:50;;;;;;;20.48;9.73;;;0.90;99.90;;;;;;4931393;28;20126;-85
2022/01/19 01:49:24;;;;;;;17.10;9.02;;;1.00;99.90;;;;;;4942727;28;20521;-85
2022/01/19 01:54:34;;;;;;;16.92;8.95;;;1.00;99.90;;;;;;4943659;28;20065;-85
2022/01/19 01:56:59;;;;;;;13.10;6.63;;;1.10;99.90;;;;;;4930986;28;20046;-85
2022/01/19 01:59:25;;;;;;;14.90;7.13;;;1.40;99.90;;;;;;4947012;28;20087;-85
2022/01/19 02:01:50;;;;;;;17.33;8.77;;;1.40;99.90;;;;;;4931673;28;20091;-86
2022/01/19 02:04:16;;;;;;;22.05;11.10;;;1.30;99.90;;;;;;4929011;28;20027;-86
2022/01/19 02:07:07;;;;;;;19.17;8.63;;;1.10;99.90;;;;;;4930595;28;20023;-86
2022/01/19 02:09:33;;;;;;;14.98;8.75;;;1.00;99.90;;;;;;4941180;28;20086;-85
2022/01/19 02:23:10;;;;;;;20.67;9.73;;;0.40;99.90;;;;;;4946954;28;20033;-85
2022/01/19 02:25:41;;;;;;;26.60;10.27;;;0.30;99.90;;;;;;4943038;28;20147;-85
2022/01/19 02:41:39;;;;;;;11.95;6.60;;;0.90;99.90;;;;;;4946131;28;20053;-86
2022/01/19 02:44:05;;;;;;;13.88;6.47;;;1.10;99.90;;;;;;4932925;28;20027;-85
2022/01/19 02:46:51;;;;;;;11.40;6.10;;;1.30;99.90;;;;;;4930411;28;20036;-85
2022/01/19 02:49:16;;;;;;;17.23;9.45;;;1.60;99.90;;;;;;4943954;28;20047;-85
2022/01/19 02:51:49;;;;;;;21.13;9.98;;;1.50;99.90;;;;;;4939599;28;20031;-85
2022/01/19 02:54:16;;;;;;;14.38;8.63;;;1.50;99.90;;;;;;4925425;28;20498;-85
2022/01/19 02:56:45;;;;;;;14.25;7.43;;;1.40;99.90;;;;;;4945472;28;20031;-85
2022/01/19 02:59:17;;;;;;;15.02;8.38;;;1.60;99.90;;;;;;4929636;28;20475;-85
2022/01/19 03:09:46;;;;;;;14.05;8.02;;;1.90;99.90;;;;;;4943876;28;20019;-85
2022/01/19 03:12:12;;;;;;;12.88;7.70;;;1.90;99.90;;;;;;4913319;28;20123;-85
2022/01/19 03:14:37;;;;;;;11.32;6.20;;;2.00;99.90;;;;;;4931927;28;20466;-85
2022/01/19 03:17:05;;;;;;;12.00;5.53;;;2.10;99.90;;;;;;4933470;28;20047;-85
2022/01/19 03:19:31;;;;;;;17.42;8.30;;;2.10;99.90;;;;;;4941949;28;20078;-85
2022/01/19 03:21:57;;;;;;;15.27;9.35;;;2.10;99.90;;;;;;4925442;28;20069;-85
2022/01/19 03:24:23;;;;;;;13.93;7.72;;;2.10;99.90;;;;;;4942673;28;20035;-85
2022/01/19 03:26:48;;;;;;;13.32;8.95;;;2.10;99.90;;;;;;4931458;28;20506;-85
2022/01/19 03:29:14;;;;;;;12.30;7.78;;;2.20;99.90;;;;;;4928041;28;20042;-85
2022/01/19 03:31:39;;;;;;;13.85;8.75;;;2.20;99.90;;;;;;4933465;28;20054;-86
2022/01/19 03:34:06;;;;;;;14.90;9.95;;;2.30;99.90;;;;;;4923912;28;20038;-85
2022/01/19 03:36:32;;;;;;;14.88;10.13;;;2.40;99.90;;;;;;4941791;28;20519;-84
2022/01/19 03:38:58;;;;;;;14.45;9.30;;;2.30;99.90;;;;;;4927602;28;20114;-85
2022/01/19 03:41:23;;;;;;;16.13;10.70;;;2.40;99.90;;;;;;4938658;28;20103;-85
2022/01/19 03:43:49;;;;;;;16.05;10.43;;;2.40;99.90;;;;;;4932151;28;20031;-85
2022/01/19 03:46:16;;;;;;;13.77;10.02;;;2.50;99.90;;;;;;4931218;28;20086;-85
2022/01/19 03:48:50;;;;;;;16.52;11.95;;;2.60;99.90;;;;;;4931479;28;20057;-85
2022/01/19 03:51:16;;;;;;;16.13;11.25;;;2.50;99.90;;;;;;4956032;28;20023;-85
2022/01/19 03:53:41;;;;;;;12.68;8.35;;;2.60;99.90;;;;;;4928290;28;20038;-85
2022/01/19 03:56:07;;;;;;;8.40;5.78;;;2.60;99.90;;;;;;4925489;28;20031;-85
2022/01/19 03:58:33;;;;;;;12.93;10.25;;;2.70;99.90;;;;;;4932098;28;20090;-85
2022/01/19 04:00:59;;;;;;;15.65;11.15;;;2.80;99.90;;;;;;4930061;28;20038;-85
2022/01/19 04:03:57;;;;;;;10.93;8.32;;;2.70;99.90;;;;;;4916395;29;20042;-85
2022/01/19 04:06:25;;;;;;;16.40;10.38;;;2.80;99.90;;;;;;4940038;28;20039;-85
2022/01/19 04:08:50;;;;;;;15.48;8.82;;;2.80;99.90;;;;;;4943318;28;20051;-85
2022/01/19 04:11:18;;;;;;;16.13;11.18;;;2.90;99.90;;;;;;4928718;28;20023;-86
2022/01/19 04:13:58;;;;;;;11.98;8.57;;;2.90;99.90;;;;;;4941282;28;20898;-86
2022/01/19 04:16:23;;;;;;;13.02;8.63;;;2.90;99.90;;;;;;4934184;28;20571;-86
2022/01/19 04:18:51;;;;;;;14.45;11.15;;;2.90;99.90;;;;;;4929502;28;20122;-85
2022/01/19 04:21:17;;;;;;;6.57;4.40;;;2.90;99.90;;;;;;4916013;28;20484;-85
2022/01/19 04:23:42;;;;;;;13.00;10.85;;;3.00;99.90;;;;;;4931835;28;20131;-86
2022/01/19 04:26:08;;;;;;;11.75;9.23;;;3.00;99.90;;;;;;4941405;29;20063;-86
2022/01/19 04:28:34;;;;;;;12.68;9.07;;;3.00;99.90;;;;;;4913698;28;20106;-86
2022/01/19 04:30:59;;;;;;;12.45;8.70;;;2.90;99.90;;;;;;4930061;28;20477;-85
2022/01/19 04:33:27;;;;;;;13.85;10.07;;;3.00;99.90;;;;;;4928188;28;20139;-85
2022/01/19 04:35:55;;;;;;;13.63;9.63;;;3.00;99.90;;;;;;4926989;28;20031;-86
2022/01/19 04:44:24;;;;;;;13.60;11.23;;;3.10;99.90;;;;;;4939553;28;20457;-86
2022/01/19 05:03:03;;;;;;;11.43;9.43;;;3.20;99.90;;;;;;4948945;28;20034;-86
2022/01/19 05:05:34;;;;;;;13.43;9.13;;;3.30;99.90;;;;;;4950252;28;20093;-86
2022/01/19 05:08:14;;;;;;;11.95;6.40;;;3.30;99.90;;;;;;4931568;28;20031;-85
2022/01/19 05:13:26;;;;;;;11.48;8.85;;;3.40;99.90;;;;;;4943963;28;20511;-85
2022/01/19 05:15:52;;;;;;;13.32;10.05;;;3.40;99.90;;;;;;4948829;28;20055;-85
2022/01/19 05:18:18;;;;;;;9.75;5.95;;;3.30;99.90;;;;;;4947861;28;20066;-86
2022/01/19 05:20:47;;;;;;;13.13;8.90;;;3.40;99.90;;;;;;4933312;28;20085;-86
2022/01/19 05:23:13;;;;;;;14.57;8.65;;;3.40;99.90;;;;;;4930642;28;20066;-85
2022/01/19 05:25:38;;;;;;;11.98;10.15;;;3.40;99.90;;;;;;4928204;28;20058;-86
2022/01/19 05:28:04;;;;;;;12.63;8.57;;;3.40;99.90;;;;;;4929541;28;20122;-86
2022/01/19 05:30:30;;;;;;;12.38;9.15;;;3.40;99.90;;;;;;4945577;28;20053;-86
2022/01/19 05:32:55;;;;;;;13.80;8.90;;;3.50;99.90;;;;;;4934401;28;20058;-86
2022/01/19 05:35:21;;;;;;;12.85;8.60;;;3.50;99.90;;;;;;4944225;28;20050;-86
2022/01/19 05:37:46;;;;;;;8.60;6.00;;;3.50;99.90;;;;;;4911512;28;20452;-86
2022/01/19 05:40:15;;;;;;;9.38;8.07;;;3.50;99.90;;;;;;4932526;28;20033;-86
2022/01/19 05:42:41;;;;;;;8.27;5.97;;;3.50;99.90;;;;;;4932112;28;20042;-85
2022/01/19 05:45:07;;;;;;;12.32;7.25;;;3.50;99.90;;;;;;4926916;28;20027;-85
2022/01/19 05:47:33;;;;;;;7.85;6.32;;;3.50;99.90;;;;;;4945035;28;20038;-85
2022/01/19 05:49:58;;;;;;;8.85;6.88;;;3.60;99.90;;;;;;4909256;28;20043;-85
2022/01/19 05:52:24;;;;;;;8.35;6.60;;;3.60;99.90;;;;;;4930661;28;20035;-85
2022/01/19 05:54:49;;;;;;;7.45;5.47;;;3.60;99.90;;;;;;4935106;28;20058;-85
2022/01/19 05:57:15;;;;;;;5.18;3.83;;;3.60;99.90;;;;;;4960679;28;20190;-85
2022/01/19 05:59:41;;;;;;;8.10;7.25;;;3.60;99.90;;;;;;4932009;28;20039;-86
2022/01/19 06:02:06;;;;;;;5.38;3.97;;;3.60;99.90;;;;;;4925526;28;20121;-86
2022/01/19 06:04:32;;;;;;;4.28;3.83;;;3.60;99.90;;;;;;4943102;28;20050;-86
2022/01/19 06:06:58;;;;;;;8.90;7.43;;;3.60;99.90;;;;;;4932945;28;20046;-86
2022/01/19 06:09:48;;;;;;;6.30;4.13;;;3.70;99.90;;;;;;4939848;28;20035;-85
2022/01/19 06:12:15;;;;;;;6.28;4.43;;;3.70;99.90;;;;;;4938678;28;20537;-85
2022/01/19 06:14:43;;;;;;;9.82;6.20;;;3.70;99.90;;;;;;4944817;28;20089;-87
2022/01/19 06:17:09;;;;;;;7.90;6.95;;;3.60;99.90;;;;;;4930114;28;20518;-85
2022/01/19 06:19:35;;;;;;;7.63;6.43;;;3.70;99.90;;;;;;4928734;28;20036;-86
2022/01/19 06:22:00;;;;;;;9.35;7.10;;;3.70;99.90;;;;;;4933305;28;20050;-86
2022/01/19 06:24:27;;;;;;;10.75;7.47;;;3.70;99.90;;;;;;4930812;28;20031;-86
2022/01/19 06:26:52;;;;;;;5.95;4.95;;;3.70;99.90;;;;;;4929876;28;20038;-86
2022/01/19 06:29:18;;;;;;;9.18;7.28;;;3.70;99.90;;;;;;4931588;28;20038;-86
2022/01/19 06:31:45;;;;;;;9.35;6.70;;;3.70;99.90;;;;;;4932681;28;20043;-86
2022/01/19 06:34:10;;;;;;;7.38;5.28;;;3.80;99.90;;;;;;4944178;28;20031;-85
2022/01/19 06:36:36;;;;;;;7.25;4.53;;;3.80;99.90;;;;;;4929205;28;20061;-84
2022/01/19 06:39:02;;;;;;;7.38;4.25;;;3.80;99.90;;;;;;4940872;28;20034;-85
2022/01/19 06:41:27;;;;;;;9.63;8.63;;;3.90;99.90;;;;;;4927773;28;20107;-85
2022/01/19 06:43:53;;;;;;;10.30;8.55;;;3.80;99.90;;;;;;4931030;28;20110;-84
2022/01/19 06:46:20;;;;;;;6.68;4.72;;;3.80;99.90;;;;;;4929016;28;20487;-85
2022/01/19 06:48:45;;;;;;;12.02;9.07;;;3.80;99.90;;;;;;4946578;28;20399;-84
2022/01/19 06:51:11;;;;;;;6.72;5.20;;;3.80;99.90;;;;;;4946470;28;20027;-85
2022/01/19 06:53:36;;;;;;;9.52;6.25;;;3.80;99.90;;;;;;4930457;28;20121;-85
2022/01/19 06:56:02;;;;;;;6.70;4.07;;;3.80;99.90;;;;;;4929558;28;20424;-84
2022/01/19 06:58:28;;;;;;;10.63;8.50;;;3.80;99.90;;;;;;4932340;28;20818;-85
2022/01/19 07:00:54;;;;;;;8.50;7.15;;;3.90;99.90;;;;;;4931947;28;20035;-85
2022/01/19 07:03:19;;;;;;;9.73;6.88;;;3.90;99.90;;;;;;4928039;28;20078;-85
2022/01/19 07:05:45;;;;;;;8.80;7.03;;;3.90;99.90;;;;;;4926507;28;20447;-85
2022/01/19 07:08:10;;;;;;;8.45;7.22;;;3.90;99.90;;;;;;4924083;28;20448;-85
2022/01/19 07:10:36;;;;;;;8.43;6.40;;;3.90;99.90;;;;;;4945288;28;20061;-84
2022/01/19 07:13:03;;;;;;;8.15;5.82;;;3.90;99.90;;;;;;4941661;28;20035;-84
2022/01/19 07:15:28;;;;;;;10.90;6.60;;;3.90;99.90;;;;;;4942351;28;20032;-85
2022/01/19 07:17:54;;;;;;;11.40;8.35;;;3.80;99.90;;;;;;4926305;28;20041;-85
2022/01/19 07:20:20;;;;;;;6.25;4.50;;;3.90;99.90;;;;;;4906020;28;20036;-85
2022/01/19 07:22:47;;;;;;;8.75;5.72;;;3.90;99.90;;;;;;4923207;28;20487;-85
2022/01/19 07:25:12;;;;;;;4.55;3.38;;;3.90;99.90;;;;;;4941072;28;20038;-85
2022/01/19 07:27:38;;;;;;;8.63;6.47;;;3.90;99.90;;;;;;4945461;28;20035;-85
2022/01/19 07:30:05;;;;;;;6.05;5.45;;;3.90;99.90;;;;;;4930213;28;20086;-85
2022/01/19 07:32:34;;;;;;;9.43;6.90;;;3.80;99.90;;;;;;4929638;28;20042;-85
2022/01/19 07:35:02;;;;;;;3.22;2.17;;;3.90;99.90;;;;;;4921525;28;20098;-85
2022/01/19 07:37:27;;;;;;;7.20;5.63;;;3.90;99.90;;;;;;4934569;28;20066;-86
2022/01/19 07:39:54;;;;;;;8.45;5.72;;;3.90;99.90;;;;;;4929472;28;20749;-86
2022/01/19 07:42:20;;;;;;;9.15;7.22;;;3.80;99.90;;;;;;4921683;28;20439;-85
2022/01/19 07:44:45;;;;;;;9.30;7.75;;;3.90;99.90;;;;;;4943886;28;20031;-86
2022/01/19 07:47:11;;;;;;;10.23;8.05;;;3.90;99.90;;;;;;4927803;28;20035;-86
2022/01/19 07:49:41;;;;;;;10.88;8.68;;;4.00;99.90;;;;;;4935723;28;20035;-85
2022/01/19 07:52:07;;;;;;;10.63;7.57;;;4.00;99.90;;;;;;4933300;28;20039;-85
2022/01/19 07:54:33;;;;;;;11.93;8.10;;;3.90;99.90;;;;;;4923371;28;20027;-85
2022/01/19 07:56:58;;;;;;;13.45;6.47;;;3.90;99.90;;;;;;4926974;28;20403;-85
2022/01/19 07:59:24;;;;;;;11.05;6.95;;;3.90;99.90;;;;;;4925438;28;20031;-86
2022/01/19 08:01:50;;;;;;;11.23;8.45;;;3.90;99.90;;;;;;4931166;28;20039;-85
2022/01/19 08:04:15;;;;;;;14.18;10.07;;;3.90;99.90;;;;;;4939926;28;20038;-85
2022/01/19 08:06:41;;;;;;;13.38;10.23;;;3.90;99.90;;;;;;4907126;28;20038;-85
2022/01/19 08:09:08;;;;;;;12.38;7.68;;;3.90;99.90;;;;;;4916494;28;20031;-86
2022/01/19 08:11:33;;;;;;;18.80;12.18;;;3.90;99.90;;;;;;4915212;28;20027;-86
2022/01/19 08:13:59;;;;;;;11.38;5.72;;;3.90;99.90;;;;;;4929382;28;20909;-84
2022/01/19 08:16:24;;;;;;;15.55;9.80;;;3.90;99.90;;;;;;4937707;28;20027;-85
2022/01/19 08:18:51;;;;;;;19.38;11.88;;;3.90;99.90;;;;;;4930829;28;20065;-85
2022/01/19 08:21:17;;;;;;;13.63;9.30;;;4.00;99.90;;;;;;4940363;28;20038;-85
2022/01/19 08:23:42;;;;;;;17.17;11.35;;;3.90;99.90;;;;;;4924851;28;20027;-85
2022/01/19 08:26:09;;;;;;;16.00;7.15;;;3.90;99.90;;;;;;4936118;28;20106;-85
2022/01/19 08:28:34;;;;;;;13.35;8.02;;;3.90;99.90;;;;;;4917053;28;20092;-85
2022/01/19 08:31:00;;;;;;;10.68;6.68;;;3.90;99.90;;;;;;4932575;28;20110;-85
2022/01/19 08:33:26;;;;;;;22.33;12.40;;;3.90;99.90;;;;;;4947550;28;20035;-86
2022/01/19 08:35:52;;;;;;;16.30;9.98;;;3.90;99.90;;;;;;4930874;28;20031;-86
2022/01/19 08:38:18;;;;;;;22.67;14.88;;;3.90;99.90;;;;;;4943748;28;20035;-86
2022/01/19 08:40:44;;;;;;;19.75;13.23;;;3.90;99.90;;;;;;4942404;28;20041;-86
2022/01/19 08:43:09;;;;;;;15.10;9.30;;;3.90;99.90;;;;;;4939814;28;20488;-86
2022/01/19 08:45:35;;;;;;;20.73;14.77;;;3.90;99.90;;;;;;4929518;28;20102;-86
2022/01/19 08:48:03;;;;;;;20.55;11.88;;;3.90;99.90;;;;;;4929643;28;20031;-85
2022/01/19 08:50:28;;;;;;;11.23;5.40;;;3.90;99.90;;;;;;4932222;28;20170;-86
2022/01/19 08:52:54;;;;;;;21.80;14.30;;;3.90;99.90;;;;;;4948684;28;20514;-86
2022/01/19 08:55:19;;;;;;;18.92;11.35;;;3.90;99.90;;;;;;4924973;28;20027;-86
2022/01/19 08:57:46;;;;;;;22.67;12.88;;;3.90;99.90;;;;;;4949477;28;20066;-86
2022/01/19 09:00:13;;;;;;;16.50;8.90;;;3.90;99.90;;;;;;4933730;28;20035;-86
2022/01/19 09:02:39;;;;;;;19.05;12.27;;;3.90;99.90;;;;;;4917024;28;20045;-86
2022/01/19 09:05:05;;;;;;;13.38;8.25;;;3.90;99.90;;;;;;4933025;28;20034;-86
2022/01/19 09:07:30;;;;;;;21.60;14.02;;;3.90;99.90;;;;;;4936594;28;20049;-85
2022/01/19 09:09:56;;;;;;;18.77;12.43;;;3.90;99.90;;;;;;4933573;28;20391;-86
2022/01/19 09:12:21;;;;;;;15.68;8.60;;;3.90;99.90;;;;;;4956884;28;20042;-85
2022/01/19 09:14:47;;;;;;;16.27;10.02;;;3.90;99.90;;;;;;4932636;28;20030;-85
2022/01/19 09:17:12;;;;;;;22.63;13.50;;;4.00;99.90;;;;;;4915855;28;20053;-85
2022/01/19 09:19:39;;;;;;;18.60;10.48;;;4.00;99.90;;;;;;4933158;28;20034;-85
2022/01/19 09:22:06;;;;;;;13.15;7.53;;;4.00;99.90;;;;;;4944090;28;20035;-85
2022/01/19 09:24:34;;;;;;;20.77;12.40;;;4.00;99.90;;;;;;4946367;28;20034;-85
2022/01/19 09:27:00;;;;;;;13.90;7.03;;;3.90;99.90;;;;;;4919870;28;20122;-85
2022/01/19 09:29:25;;;;;;;11.35;5.88;;;4.00;99.90;;;;;;4944649;28;20107;-85
2022/01/19 09:31:52;;;;;;;22.20;13.20;;;3.90;99.90;;;;;;4928593;28;20035;-85
2022/01/19 09:34:20;;;;;;;10.73;5.72;;;4.00;99.90;;;;;;4944254;28;20042;-85
2022/01/19 09:36:49;;;;;;;23.90;12.75;;;4.10;99.90;;;;;;4935575;28;20077;-85
2022/01/19 09:39:20;;;;;;;14.55;7.13;;;4.00;99.90;;;;;;4943668;28;20023;-85
2022/01/19 09:41:48;;;;;;;21.73;11.77;;;4.10;99.90;;;;;;4940503;28;20031;-85
2022/01/19 09:44:14;;;;;;;11.52;4.82;;;4.10;99.90;;;;;;4944398;28;20090;-85
2022/01/19 09:46:40;;;;;;;24.50;13.20;;;4.00;99.90;;;;;;4927164;28;20035;-85
2022/01/19 09:49:06;;;;;;;12.55;7.18;;;4.00;99.90;;;;;;4918182;28;20391;-85
2022/01/19 09:51:31;;;;;;;18.35;11.52;;;4.00;99.90;;;;;;4932531;28;20035;-85
2022/01/19 09:53:57;;;;;;;21.17;12.43;;;4.00;99.90;;;;;;4926643;28;20040;-86
2022/01/19 09:56:23;;;;;;;27.65;15.30;;;4.10;99.90;;;;;;4936528;28;20030;-85
2022/01/19 09:58:49;;;;;;;16.35;8.88;;;4.10;99.90;;;;;;4933560;28;20051;-85
2022/01/19 10:01:21;;;;;;;22.77;12.32;;;4.10;99.90;;;;;;4933150;28;20038;-86
2022/01/19 10:03:47;;;;;;;19.35;10.63;;;4.00;99.90;;;;;;4935380;28;20491;-86
2022/01/19 10:06:17;;;;;;;23.27;13.90;;;4.20;99.90;;;;;;4919693;28;20427;-86
2022/01/19 10:08:51;;;;;;;20.70;13.65;;;4.10;99.90;;;;;;4959247;28;20086;-86
2022/01/19 10:16:59;;;;;;;18.23;9.38;;;4.20;99.90;;;;;;4950799;28;20066;-86
2022/01/19 10:19:31;;;;;;;17.42;10.18;;;4.20;99.90;;;;;;4942650;28;20110;-86
2022/01/19 10:22:01;;;;;;;20.30;11.18;;;4.20;99.90;;;;;;4910256;28;20042;-86
2022/01/19 10:25:03;;;;;;;23.88;12.57;;;4.20;99.90;;;;;;4925063;28;20023;-86
2022/01/19 10:27:42;;;;;;;27.50;14.60;;;4.20;99.90;;;;;;4944476;28;20023;-85
2022/01/19 10:30:08;;;;;;;23.77;14.05;;;4.20;99.90;;;;;;4936238;28;20062;-88
2022/01/19 10:32:41;;;;;;;20.77;11.50;;;4.20;99.90;;;;;;4931922;28;20047;-86
2022/01/19 10:35:15;;;;;;;21.40;13.82;;;4.20;99.90;;;;;;4909303;29;20039;-85
2022/01/19 10:37:41;;;;;;;21.42;11.68;;;4.20;99.90;;;;;;4898974;29;20039;-88
2022/01/19 10:40:07;;;;;;;10.95;6.35;;;4.30;99.90;;;;;;4938015;28;20050;-86
2022/01/19 10:42:34;;;;;;;23.15;15.75;;;4.20;99.90;;;;;;4918730;28;20039;-85
2022/01/19 10:45:04;;;;;;;24.90;14.48;;;4.30;99.90;;;;;;4930893;28;20058;-86
2022/01/19 10:47:53;;;;;;;19.00;11.57;;;4.20;99.90;;;;;;4932965;28;20071;-85
2022/01/19 10:50:33;;;;;;;25.27;14.98;;;4.40;99.90;;;;;;4928753;28;20031;-86
2022/01/19 10:53:00;;;;;;;23.35;12.27;;;4.40;99.90;;;;;;4929253;28;20035;-86
2022/01/19 10:55:30;;;;;;;17.63;7.93;;;4.30;99.90;;;;;;4928869;28;20084;-87
2022/01/19 10:57:56;;;;;;;29.88;16.13;;;4.40;99.90;;;;;;4946233;28;20035;-86
2022/01/19 11:00:36;;;;;;;23.05;13.00;;;4.40;99.90;;;;;;4934041;28;20035;-86
2022/01/19 11:03:21;;;;;;;24.63;14.57;;;4.50;99.90;;;;;;4895577;28;20036;-86
2022/01/19 11:05:58;;;;;;;8.57;4.37;;;4.50;99.90;;;;;;4931627;28;20543;-87
2022/01/19 11:08:24;;;;;;;23.73;14.90;;;4.60;99.90;;;;;;4922134;28;20279;-86
2022/01/19 11:10:54;;;;;;;27.73;15.95;;;4.60;99.90;;;;;;4915986;28;20027;-86
2022/01/19 11:13:33;;;;;;;10.68;5.68;;;4.50;99.90;;;;;;4914149;28;20035;-86
2022/01/19 11:16:01;;;;;;;25.13;15.15;;;4.60;99.90;;;;;;4943084;28;20035;-87
2022/01/19 11:18:32;;;;;;;16.55;9.70;;;4.70;99.90;;;;;;4939749;28;20047;-86
2022/01/19 11:21:02;;;;;;;15.57;8.82;;;4.50;99.90;;;;;;4928868;28;20034;-87
2022/01/19 11:23:49;;;;;;;17.33;10.82;;;4.60;99.90;;;;;;4940634;28;20050;-86
2022/01/19 11:26:16;;;;;;;8.15;4.97;;;4.70;99.90;;;;;;4902159;29;20362;-86
2022/01/19 11:28:45;;;;;;;16.67;9.00;;;4.70;99.90;;;;;;4909307;28;20039;-86
2022/01/19 11:31:23;;;;;;;23.67;12.05;;;4.70;99.90;;;;;;4913771;28;20054;-86
2022/01/19 11:33:52;;;;;;;22.50;14.50;;;4.70;99.90;;;;;;4940068;28;20031;-86
2022/01/19 11:36:34;;;;;;;20.02;12.90;;;4.60;99.90;;;;;;4614641;28;9999861;-86
2022/01/19 11:39:10;;;;;;;17.20;8.90;;;4.70;99.90;;;;;;4921878;28;20040;-86
2022/01/19 11:41:37;;;;;;;14.80;8.88;;;4.70;99.90;;;;;;4934744;28;20110;-86
2022/01/19 11:44:04;;;;;;;20.48;11.70;;;4.70;99.90;;;;;;4915524;28;20034;-86
2022/01/19 11:46:31;;;;;;;13.55;6.88;;;4.80;99.90;;;;;;4911958;28;20054;-86
2022/01/19 11:49:01;;;;;;;22.42;13.55;;;4.70;99.90;;;;;;4909945;28;20031;-86
2022/01/19 11:51:38;;;;;;;20.38;12.50;;;4.70;99.90;;;;;;4886606;28;20102;-86
2022/01/19 11:54:15;;;;;;;20.85;12.70;;;4.80;99.90;;;;;;4912894;28;20759;-86
2022/01/19 11:56:59;;;;;;;22.65;13.52;;;4.90;99.90;;;;;;4912753;28;20146;-86
2022/01/19 11:59:43;;;;;;;24.90;15.10;;;4.90;99.90;;;;;;4933558;28;20039;-86
2022/01/19 12:02:36;;;;;;;21.13;12.95;;;4.90;99.90;;;;;;4927791;28;20031;-86
2022/01/19 12:05:07;;;;;;;28.27;15.45;;;4.80;99.90;;;;;;4914227;28;20027;-86
2022/01/19 12:07:52;;;;;;;15.50;10.43;;;4.80;99.90;;;;;;4939959;28;20030;-86
2022/01/19 12:10:20;;;;;;;22.58;13.38;;;4.90;99.90;;;;;;4925630;28;20898;-87
2022/01/19 12:13:32;;;;;;;11.35;5.30;;;4.90;99.90;;;;;;4929109;28;20106;-86
2022/01/19 12:16:10;;;;;;;19.83;11.73;;;4.90;99.90;;;;;;4938525;28;20027;-86
2022/01/19 12:18:40;;;;;;;24.38;14.63;;;4.90;99.90;;;;;;4929334;28;20586;-86
2022/01/19 12:21:08;;;;;;;26.55;15.88;;;4.90;99.90;;;;;;4939822;28;20116;-86
2022/01/19 12:23:36;;;;;;;23.23;13.73;;;4.90;99.90;;;;;;4932475;28;20039;-86
2022/01/19 12:26:02;;;;;;;9.73;5.85;;;4.80;99.90;;;;;;4914513;28;20499;-86
2022/01/19 12:28:48;;;;;;;19.30;11.82;;;4.80;99.90;;;;;;4931353;28;20449;-86
2022/01/19 12:31:26;;;;;;;21.63;10.60;;;4.80;99.90;;;;;;4926702;28;20487;-86
2022/01/19 12:34:09;;;;;;;21.27;14.38;;;4.80;99.90;;;;;;4940229;28;20046;-86
2022/01/19 12:36:50;;;;;;;26.38;11.20;;;4.80;99.90;;;;;;4938872;28;20043;-86
2022/01/19 12:39:30;;;;;;;20.63;11.07;;;4.80;99.90;;;;;;4943978;28;20035;-86
2022/01/19 12:41:59;;;;;;;20.75;11.02;;;4.80;99.90;;;;;;4940292;28;20035;-86
2022/01/19 12:44:45;;;;;;;12.90;7.10;;;4.80;99.90;;;;;;4925322;28;20026;-86
2022/01/19 12:47:27;;;;;;;27.13;15.68;;;4.70;99.90;;;;;;4926007;28;20047;-86
2022/01/19 12:50:09;;;;;;;14.35;7.53;;;4.70;99.90;;;;;;4934900;28;20035;-86
2022/01/19 12:52:41;;;;;;;20.45;12.68;;;4.80;99.90;;;;;;4936521;28;20034;-86
2022/01/19 12:55:19;;;;;;;23.83;13.98;;;4.80;99.90;;;;;;4899544;28;20027;-86
2022/01/19 12:57:46;;;;;;;15.25;8.88;;;4.80;99.90;;;;;;4929389;28;20499;-86
2022/01/19 13:00:14;;;;;;;20.90;10.95;;;4.70;99.90;;;;;;4942439;28;20042;-86
2022/01/19 13:02:40;;;;;;;21.48;11.77;;;4.70;99.90;;;;;;4924921;28;20036;-86
2022/01/19 13:05:10;;;;;;;26.25;14.07;;;4.80;99.90;;;;;;4928084;28;20503;-86
2022/01/19 13:07:39;;;;;;;15.93;8.73;;;4.70;99.90;;;;;;4953254;28;20031;-86
2022/01/19 13:10:22;;;;;;;16.20;8.18;;;4.70;99.90;;;;;;4914287;29;20042;-86
2022/01/19 13:13:07;;;;;;;26.80;14.57;;;4.70;99.90;;;;;;4912521;28;20032;-86
2022/01/19 13:15:54;;;;;;;24.88;14.02;;;4.70;99.90;;;;;;4921801;28;20069;-87
2022/01/19 13:18:43;;;;;;;20.80;13.07;;;4.70;99.90;;;;;;4913484;29;20040;-86
2022/01/19 13:21:09;;;;;;;14.00;7.10;;;4.70;99.90;;;;;;4906144;28;20439;-86
2022/01/19 13:23:37;;;;;;;27.50;15.95;;;4.70;99.90;;;;;;4947635;28;20026;-86
2022/01/19 13:26:05;;;;;;;21.10;12.23;;;4.70;99.90;;;;;;4923986;28;20121;-86
2022/01/19 13:28:32;;;;;;;22.58;11.35;;;4.70;99.90;;;;;;4914180;28;20449;-86
2022/01/19 13:31:19;;;;;;;24.60;13.10;;;4.70;99.90;;;;;;4934532;28;20082;-86
2022/01/19 13:33:56;;;;;;;22.75;7.63;;;4.60;99.90;;;;;;4930760;28;20035;-86
2022/01/19 13:36:29;;;;;;;20.05;11.70;;;4.60;99.90;;;;;;4917621;28;20023;-86
2022/01/19 13:38:57;;;;;;;18.15;11.27;;;4.60;99.90;;;;;;4924381;28;20567;-86
2022/01/19 13:41:23;;;;;;;17.25;9.77;;;4.60;99.90;;;;;;4945774;28;20038;-86
2022/01/19 13:43:49;;;;;;;18.52;10.63;;;4.60;99.90;;;;;;4932440;28;20026;-85
2022/01/19 13:46:24;;;;;;;19.23;12.18;;;4.50;99.90;;;;;;4917330;28;20122;-86
2022/01/19 13:48:58;;;;;;;16.25;9.07;;;4.50;99.90;;;;;;4915783;28;20027;-86
2022/01/19 13:51:25;;;;;;;20.95;14.00;;;4.60;99.90;;;;;;4925143;28;20126;-86
2022/01/19 13:53:53;;;;;;;20.92;10.73;;;4.50;99.90;;;;;;4916107;28;20031;-86
2022/01/19 13:56:24;;;;;;;21.23;12.50;;;4.50;99.90;;;;;;4940026;28;20046;-86
2022/01/19 13:59:04;;;;;;;17.75;9.23;;;4.60;99.90;;;;;;4956460;28;20031;-86
2022/01/19 14:01:40;;;;;;;22.75;12.35;;;4.50;99.90;;;;;;4941056;28;20487;-86
2022/01/19 14:04:08;;;;;;;23.13;14.23;;;4.60;99.90;;;;;;4932587;28;20767;-86